Flight Track Log - Related Links

Times and Time Zones

All times are in EST time to prevent confusion due to time zone crossing. See the KAP5 flight status page for this flight to view local times or setup timezone preferences in your user account.

Time Position Orientation Groundspeed Altitude Reporting Facility
EST Latitude Longitude Course Direction KTS MPH feet Rate Location/Type
Fri 06:55:04 PM 42.7517 -73.7653 77° East 107 123 1,100  Level Boston Center
Fri 06:56:05 PM 42.7553 -73.7228 83° East 118 136 1,800 627 Climbing Boston Center
Fri 06:56:11 PM 42.7567 -73.7189 64° Northeast 113 130 1,800 700 Level Boston Center
Fri 06:57:05 PM 42.7556 -73.6736 92° East 134 154 2,500 800 Climbing Boston Center
Fri 06:57:11 PM 42.7572 -73.6658 74° East 127 146 2,600 787 Climbing Boston Center
Fri 06:58:06 PM 42.7606 -73.6228 84° East 132 152 3,300 787 Climbing Boston Center
Fri 06:58:12 PM 42.7619 -73.6164 74° East 131 151 3,400 609 Climbing Boston Center
Fri 06:59:15 PM 42.7625 -73.5661 89° East 133 153 4,000 678 Climbing Boston Center
Fri 07:00:07 PM 42.7658 -73.5225 84° East 140 161 4,700 787 Climbing Boston Center
Fri 07:00:16 PM 42.7669 -73.5142 80° East 137 158 4,800 923 Climbing Boston Center
Fri 07:00:59 PM 42.7703 -73.4744 83° East 134 154 5,500 787 Climbing Boston Center
Fri 07:01:17 PM 42.7728 -73.4644 71° East 134 154 5,600 677 Climbing Boston Center
Fri 07:02:01 PM 42.7772 -73.4244 81° East 137 158 6,200 774 Climbing Boston Center
Fri 07:02:19 PM 42.7789 -73.4092 82° East 136 157 6,400 689 Climbing Boston Center
Fri 07:03:02 PM 42.7786 -73.3694 91° East 145 167 6,900 689 Climbing Boston Center
Fri 07:03:20 PM 42.7772 -73.3533 97° East 147 169 7,100 590 Climbing Boston Center
Fri 07:04:03 PM 42.7692 -73.3139 106° East 154 177 7,500 590 Climbing Boston Center
Fri 07:04:21 PM 42.7689 -73.2969 91° East 151 174 7,700 692 Climbing Boston Center
Fri 07:05:21 PM 42.7569 -73.2397 106° East 156 180 8,400 645 Climbing Boston Center
Fri 07:06:22 PM 42.7478 -73.1761 101° East 159 183 9,000 298 Climbing Boston Center
Fri 07:07:22 PM 42.7319 -73.1111 108° East 181 208 9,000  Level Boston Center
Fri 07:08:25 PM 42.7178 -73.0378 105° East 198 228 9,000  Level Boston Center
Fri 07:09:26 PM 42.7136 -72.9764 95° East 195 224 9,000  Level Boston Center
Fri 07:10:26 PM 42.7017 -72.9011 102° East 199 229 9,000  Level Boston Center
Fri 07:11:28 PM 42.6844 -72.8133 105° East 199 229 9,000 49 Level Boston Center
Fri 07:12:28 PM 42.6711 -72.7394 104° East 199 229 9,100 48 Climbing Boston Center
Fri 07:13:32 PM 42.6575 -72.6656 104° East 200 230 9,100  Level Boston Center
Fri 07:14:32 PM 42.6439 -72.5914 104° East 200 230 9,100  Level Boston Center
Fri 07:15:33 PM 42.6306 -72.5175 104° East 201 231 9,100 -50 Level Boston Center
Fri 07:16:33 PM 42.6178 -72.4436 103° East 201 231 9,000 -49 Descending Boston Center
Fri 07:17:36 PM 42.6047 -72.3703 104° East 200 230 9,000 49 Level Boston Center
Fri 07:18:35 PM 42.5906 -72.2978 105° East 199 229 9,100 49 Climbing Boston Center
Fri 07:19:39 PM 42.5753 -72.2117 104° East 201 231 9,100  Level Boston Center
Fri 07:20:40 PM 42.5617 -72.1383 104° East 200 230 9,100  Level Boston Center
Fri 07:21:40 PM 42.5481 -72.0664 104° East 198 228 9,100  Level Boston Center
Fri 07:22:41 PM 42.5453 -71.9906 93° East 203 234 9,100  Level Boston Center
Fri 07:23:42 PM 42.5383 -71.9100 97° East 201 231 9,100  Level Boston Center
Fri 07:24:43 PM 42.5250 -71.8378 104° East 199 229 9,100 -49 Level Boston Center
Fri 07:25:44 PM 42.5164 -71.7628 99° East 202 232 9,000 -49 Descending Boston Center
Fri 07:26:45 PM 42.5117 -71.6886 95° East 201 231 9,000  Level Boston Center
Fri 07:27:47 PM 42.5075 -71.6086 94° East 199 229 9,000 -191 Level Boston Center
Fri 07:28:19 PM 42.5167 -71.5667 73° East 207 238 8,700 -717 Descending KA90
Fri 07:29:19 PM 42.5333 -71.4833 75° East 230 265 7,900 -850 Descending KA90
Fri 07:30:19 PM 42.5500 -71.4000 75° East 233 268 7,000 -800 Descending KA90
Fri 07:31:19 PM 42.5500 -71.3167 90° East 225 259 6,300 -750 Descending KA90
Fri 07:32:19 PM 42.5500 -71.2333 90° East 223 257 5,500 -789 Descending KA90
Fri 07:33:13 PM 42.5333 -71.1667 109° East 218 251 4,800 -800 Descending KA90
Fri 07:34:19 PM 42.5000 -71.1000 124° Southeast 199 229 3,900 -952 Descending KA90
Fri 07:35:19 PM 42.4667 -71.0333 124° Southeast 195 224 2,800 -1,200 Descending KA90
Fri 07:36:19 PM 42.4333 -71.0000 144° Southeast 181 208 1,500 -1,140 Descending KA90
Fri 07:37:20 PM 42.3833 -70.9833 166° South 138 159 500 -984 Descending KA90
Fri 07:39:00 PM 42.3630 -71.0064 204° Southwest  Level Estimated
Fri 07:46:00 PM 42.3630 -71.0064 204° Southwest  Level Estimated

Login

Don't have an account? Register now (free) for customized features, flight alerts, and more!